Time;durP1;ratioP1;P1;durP2;ratioP2;P2;SDS_P1;SDS_P2;PMS_P1;PMS_P2;Temp;Humidity;BMP_temperature;BMP_pressure;BME280_temperature;BME280_humidity;BME280_pressure;Samples;Min_cycle;Max_cycle;Signal;HPM_P1;HPM_P2
2022/08/28 00:00:30;;;;;;;28.93;9.13;;;;;;;22.26;55.66;99845.91;1658570;84;21879;-58
2022/08/28 00:02:57;;;;;;;27.57;8.13;;;;;;;22.25;54.23;99838.48;1645842;85;21569;-56
2022/08/28 00:05:26;;;;;;;34.77;9.13;;;;;;;22.28;50.00;99836.62;1651699;85;21226;-56
2022/08/28 00:07:53;;;;;;;36.20;10.83;;;;;;;22.40;48.93;99844.28;1609205;87;21236;-55
2022/08/28 00:10:22;;;;;;;37.30;13.30;;;;;;;22.48;47.25;99841.59;1645926;85;20973;-59
2022/08/28 00:12:51;;;;;;;42.83;11.27;;;;;;;22.59;47.92;99834.64;1634199;86;22200;-55
2022/08/28 00:15:21;;;;;;;33.73;11.80;;;;;;;22.65;47.85;99838.59;1659653;84;21097;-56
2022/08/28 00:17:49;;;;;;;31.47;10.93;;;;;;;22.65;46.96;99847.34;1642964;86;21106;-56
2022/08/28 00:20:17;;;;;;;32.23;11.77;;;;;;;22.70;49.96;99844.69;1634339;85;21155;-60
2022/08/28 00:22:46;;;;;;;42.03;12.13;;;;;;;22.64;52.83;99844.98;1645254;85;21448;-56
2022/08/28 00:25:13;;;;;;;38.70;12.40;;;;;;;22.56;51.66;99849.79;1652361;85;21062;-56
2022/08/28 00:27:52;;;;;;;30.97;10.87;;;;;;;22.53;50.31;99848.20;1660221;84;21516;-55
2022/08/28 00:30:30;;;;;;;35.43;11.43;;;;;;;22.47;50.58;99842.67;1636219;85;21892;-61
2022/08/28 00:33:01;;;;;;;36.97;11.07;;;;;;;22.46;50.51;99844.51;1642322;84;22137;-55
2022/08/28 00:35:28;;;;;;;;;;;;;;;22.42;51.33;99850.09;1650220;85;21236;-56
2022/08/28 00:37:56;;;;;;;37.93;11.47;;;;;;;22.40;49.82;99854.11;1641644;85;20166;-56
2022/08/28 00:40:26;;;;;;;40.77;10.00;;;;;;;22.40;47.84;99853.58;1669432;84;21084;-60
2022/08/28 00:42:54;;;;;;;35.87;11.20;;;;;;;22.46;47.60;99849.81;1650657;85;21169;-56
2022/08/28 00:45:21;;;;;;;44.93;10.83;;;;;;;22.50;49.62;99846.91;1662744;84;21123;-56
2022/08/28 00:47:48;;;;;;;39.13;10.57;;;;;;;22.49;49.80;99852.47;1665015;85;21548;-55
2022/08/28 00:50:17;;;;;;;34.37;9.37;;;;;;;22.47;49.01;99856.74;1640860;85;21075;-60
2022/08/28 00:52:50;;;;;;;39.47;11.17;;;;;;;22.56;48.89;99858.30;1663133;84;21079;-57
2022/08/28 00:55:21;;;;;;;35.03;10.50;;;;;;;22.58;49.00;99855.64;1650262;85;21013;-56
2022/08/28 00:57:54;;;;;;;47.65;10.05;;;;;;;22.58;51.36;99858.30;1664735;84;21144;-55
2022/08/28 01:00:31;;;;;;;45.03;10.37;;;;;;;22.57;48.16;99861.20;1644257;84;20953;-56
2022/08/28 01:02:58;;;;;;;46.77;9.27;;;;;;;22.68;48.31;99857.98;1652867;85;21055;-55
2022/08/28 01:05:25;;;;;;;37.93;9.77;;;;;;;22.69;46.62;99851.59;1643373;85;21532;-55
2022/08/28 01:07:56;;;;;;;41.23;9.73;;;;;;;22.75;47.47;99847.31;1670005;84;21612;-55
2022/08/28 01:10:24;;;;;;;39.77;10.80;;;;;;;22.76;47.66;99852.09;1671316;84;21763;-57
2022/08/28 01:12:53;;;;;;;42.03;9.30;;;;;;;22.76;48.28;99850.22;1640894;85;21428;-55
2022/08/28 01:15:23;;;;;;;43.53;10.10;;;;;;;22.75;48.46;99854.49;1640330;85;21453;-55
2022/08/28 01:17:52;;;;;;;45.93;10.17;;;;;;;22.77;46.48;99855.03;1661337;84;21101;-56
2022/08/28 01:20:23;;;;;;;37.67;9.60;;;;;;;22.82;45.67;99849.14;1641658;85;21471;-59
2022/08/28 01:23:11;;;;;;;37.63;10.08;;;;;;;22.91;45.36;99845.90;1633861;85;21548;-55
2022/08/28 01:25:38;;;;;;;36.37;9.37;;;;;;;22.93;45.23;99845.14;1667626;84;21138;-56
2022/08/28 01:28:09;;;;;;;47.00;11.23;;;;;;;22.92;43.71;99854.16;1670038;84;20997;-61
2022/08/28 01:30:38;;;;;;;35.93;9.00;;;;;;;23.03;42.93;99849.86;1644065;84;21476;-55
2022/08/28 01:33:05;;;;;;;35.00;8.93;;;;;;;23.11;43.79;99850.33;1680022;83;21225;-56
2022/08/28 01:35:35;;;;;;;34.07;9.00;;;;;;;23.05;43.61;99853.02;1645154;85;22148;-56
2022/08/28 01:38:03;;;;;;;33.53;8.53;;;;;;;23.03;43.09;99859.16;1656200;84;21070;-61
2022/08/28 01:40:35;;;;;;;43.77;8.93;;;;;;;23.01;43.30;99859.17;1664713;84;21127;-55
2022/08/28 01:43:17;;;;;;;38.20;7.60;;;;;;;23.00;43.32;99861.58;1666815;84;21061;-55
2022/08/28 01:45:47;;;;;;;35.00;9.17;;;;;;;22.93;43.63;99862.41;1655210;84;21138;-62
2022/08/28 01:48:14;;;;;;;46.05;13.43;;;;;;;22.95;42.84;99857.06;1668817;84;21429;-55
2022/08/28 01:50:42;;;;;;;44.37;10.67;;;;;;;23.14;41.61;99863.07;1646699;85;21086;-58
2022/08/28 01:53:12;;;;;;;41.97;9.57;;;;;;;23.28;41.19;99861.39;1658296;85;21058;-56
2022/08/28 01:55:39;;;;;;;38.65;9.00;;;;;;;23.40;40.81;99857.05;1639611;85;21233;-64
2022/08/28 01:58:08;;;;;;;43.33;8.83;;;;;;;23.50;40.41;99864.42;1634037;86;21118;-57
2022/08/28 02:00:36;;;;;;;41.87;8.80;;;;;;;23.58;40.46;99867.55;1638918;86;21400;-56
2022/08/28 02:03:03;;;;;;;37.63;8.90;;;;;;;23.58;40.44;99861.70;1641362;85;21165;-55
2022/08/28 02:05:31;;;;;;;33.50;9.50;;;;;;;23.56;40.50;99867.81;1641645;86;21083;-56
2022/08/28 02:08:00;;;;;;;42.90;8.87;;;;;;;23.52;40.92;99869.45;1635575;86;21036;-57
2022/08/28 02:10:28;;;;;;;35.10;8.03;;;;;;;23.48;40.65;99870.54;1635299;86;21440;-56
2022/08/28 02:12:55;;;;;;;35.20;8.13;;;;;;;23.45;40.63;99873.78;1636625;86;21086;-57
2022/08/28 02:15:24;;;;;;;33.00;8.30;;;;;;;23.46;40.57;99872.70;1671892;84;21058;-57
2022/08/28 02:17:51;;;;;;;39.90;7.87;;;;;;;23.48;40.60;99872.41;1663708;85;21105;-63
2022/08/28 02:20:18;;;;;;;40.57;8.20;;;;;;;23.44;40.64;99874.83;1664100;85;21106;-56
2022/08/28 02:22:47;;;;;;;30.53;7.60;;;;;;;23.41;40.77;99874.59;1658248;84;21018;-55
2022/08/28 02:25:15;;;;;;;33.30;7.67;;;;;;;23.38;41.02;99877.83;1662002;84;21869;-56
2022/08/28 02:27:43;;;;;;;41.93;13.87;;;;;;;23.33;40.91;99878.63;1660330;84;21134;-61
2022/08/28 02:30:11;;;;;;;40.67;13.43;;;;;;;23.29;41.15;99882.91;1632947;85;21550;-60
2022/08/28 02:32:38;;;;;;;38.13;8.53;;;;;;;23.22;41.24;99883.75;1659252;85;21430;-55
2022/08/28 02:35:07;;;;;;;41.10;8.43;;;;;;;23.16;41.35;99884.88;1662545;84;21130;-57
2022/08/28 02:37:34;;;;;;;31.50;8.40;;;;;;;23.11;41.31;99890.20;1666025;84;21242;-62
2022/08/28 02:40:04;;;;;;;33.53;7.83;;;;;;;23.10;41.67;99885.42;1658335;84;21067;-56
2022/08/28 02:42:32;;;;;;;37.03;8.47;;;;;;;23.08;41.44;99890.78;1671790;84;21129;-56
2022/08/28 02:44:59;;;;;;;25.67;8.57;;;;;;;23.13;41.43;99884.09;1668479;84;21617;-55
2022/08/28 02:47:27;;;;;;;35.97;10.17;;;;;;;23.12;41.54;99887.28;1667683;84;21061;-56
2022/08/28 02:49:54;;;;;;;39.27;9.00;;;;;;;23.16;41.55;99888.86;1671668;84;21282;-55
2022/08/28 02:52:23;;;;;;;32.63;8.80;;;;;;;23.19;41.82;99889.65;1630328;86;21333;-61
2022/08/28 02:54:50;;;;;;;35.87;9.60;;;;;;;23.21;41.70;99891.48;1662229;84;21160;-54
2022/08/28 02:57:17;;;;;;;40.07;9.00;;;;;;;23.23;41.56;99890.14;1667667;84;21237;-54
2022/08/28 02:59:46;;;;;;;41.23;11.17;;;;;;;23.24;41.67;99894.38;1668267;84;21082;-60
2022/08/28 03:02:13;;;;;;;47.93;12.03;;;;;;;23.26;41.71;99897.58;1641758;85;21475;-61
2022/08/28 03:04:40;;;;;;;45.03;11.93;;;;;;;23.27;41.71;99895.70;1656648;83;21065;-55
2022/08/28 03:07:08;;;;;;;43.83;12.60;;;;;;;23.29;41.78;99894.87;1648368;85;21127;-56
2022/08/28 03:09:35;;;;;;;30.60;11.30;;;;;;;23.32;41.78;99894.34;1630187;85;21102;-56
2022/08/28 03:12:04;;;;;;;37.07;9.20;;;;;;;23.37;41.82;99895.63;1651880;85;21493;-62
2022/08/28 03:14:31;;;;;;;33.73;9.70;;;;;;;23.44;41.65;99901.42;1647541;85;21742;-54
2022/08/28 03:17:00;;;;;;;35.63;10.80;;;;;;;23.53;41.79;99915.75;1610559;87;21011;-55
2022/08/28 03:19:27;;;;;;;35.73;12.30;;;;;;;23.62;41.70;99910.63;1638029;86;21209;-55
2022/08/28 03:21:54;;;;;;;34.67;13.27;;;;;;;23.68;41.65;99911.42;1652262;85;21022;-55
2022/08/28 03:24:21;;;;;;;36.50;13.07;;;;;;;23.77;41.22;99911.06;1605682;87;21452;-55
2022/08/28 03:26:51;;;;;;;34.80;12.63;;;;;;;23.91;41.12;99905.91;1634655;85;21335;-54
2022/08/28 03:29:18;;;;;;;36.57;12.83;;;;;;;23.99;40.99;99911.41;1661064;84;21126;-56
2022/08/28 03:31:45;;;;;;;31.40;12.13;;;;;;;23.96;41.26;99912.50;1649290;85;21123;-57
2022/08/28 03:34:13;;;;;;;42.87;14.67;;;;;;;24.10;41.04;99911.33;1644551;85;21049;-57
2022/08/28 03:36:40;;;;;;;45.30;16.50;;;;;;;24.26;41.02;99915.41;1646822;85;21059;-56
2022/08/28 03:39:07;;;;;;;46.47;16.80;;;;;;;24.30;40.81;99920.97;1644041;86;21235;-56
2022/08/28 03:41:34;;;;;;;42.03;18.60;;;;;;;24.39;40.86;99917.42;1656466;85;20994;-55
2022/08/28 03:44:02;;;;;;;53.57;22.10;;;;;;;24.58;40.59;99919.36;1640071;86;22062;-56
2022/08/28 03:46:34;;;;;;;52.10;24.83;;;;;;;24.74;40.22;99907.45;1638338;85;21095;-56
2022/08/28 03:49:00;;;;;;;58.07;28.17;;;;;;;24.92;40.08;99916.55;1655504;84;21094;-56
2022/08/28 03:51:29;;;;;;;59.40;29.00;;;;;;;24.98;39.80;99920.74;1668391;84;21960;-63
2022/08/28 03:53:58;;;;;;;63.00;29.90;;;;;;;24.98;39.86;99926.08;1658426;84;20986;-56
2022/08/28 03:56:26;;;;;;;60.33;33.40;;;;;;;25.06;39.65;99918.77;1659139;85;21059;-62
2022/08/28 03:58:56;;;;;;;62.27;33.87;;;;;;;25.19;39.28;99923.43;1636923;86;21115;-55
2022/08/28 04:01:23;;;;;;;61.50;36.30;;;;;;;25.32;39.08;99919.23;1663022;85;21592;-56
2022/08/28 04:03:50;;;;;;;65.33;36.03;;;;;;;25.45;39.24;99920.38;1643724;86;21169;-57
2022/08/28 04:06:18;;;;;;;76.27;38.87;;;;;;;25.62;39.36;99919.31;1668983;84;21126;-63
2022/08/28 04:08:46;;;;;;;71.40;40.00;;;;;;;25.71;39.35;99920.23;1661384;84;21141;-56
2022/08/28 04:11:13;;;;;;;70.50;40.07;;;;;;;25.77;39.35;99922.83;1644088;85;21125;-55
2022/08/28 04:13:40;;;;;;;75.70;39.43;;;;;;;25.71;39.77;99925.56;1660993;84;21042;-57
2022/08/28 04:16:11;;;;;;;62.67;35.20;;;;;;;25.64;39.80;99926.48;1643136;85;21907;-59
2022/08/28 04:18:40;;;;;;;67.87;36.43;;;;;;;25.59;40.21;99924.45;1661603;85;20971;-55
2022/08/28 04:21:10;;;;;;;64.87;35.23;;;;;;;25.54;40.59;99923.20;1664640;85;21133;-57
2022/08/28 04:23:39;;;;;;;65.17;33.02;;;;;;;25.51;41.20;99925.89;1639779;85;20984;-63
2022/08/28 04:26:08;;;;;;;51.73;30.60;;;;;;;25.51;41.61;99918.44;1661411;84;21515;-63
2022/08/28 04:28:35;;;;;;;56.47;32.13;;;;;;;25.53;41.62;99923.72;1642156;85;21525;-56
2022/08/28 04:31:02;;;;;;;58.40;32.77;;;;;;;25.58;42.04;99926.88;1640307;86;21015;-56
2022/08/28 04:33:30;;;;;;;61.93;30.73;;;;;;;25.66;41.31;99920.32;1642217;85;21079;-59
2022/08/28 04:35:59;;;;;;;60.90;31.17;;;;;;;25.78;41.26;99913.22;1658548;85;21042;-57
2022/08/28 04:38:26;;;;;;;60.23;30.47;;;;;;;25.91;40.94;99911.14;1590814;87;21188;-57
2022/08/28 04:40:53;;;;;;;48.30;22.93;;;;;;;25.93;41.24;99912.17;1662131;84;21503;-57
2022/08/28 04:43:20;;;;;;;38.17;16.20;;;;;;;25.90;40.50;99917.55;1674179;84;21497;-58
2022/08/28 04:45:48;;;;;;;37.23;15.37;;;;;;;25.86;39.86;99913.09;1638517;85;21026;-56
2022/08/28 04:48:16;;;;;;;37.43;13.67;;;;;;;25.88;39.60;99916.27;1636656;85;21464;-57
2022/08/28 04:50:44;;;;;;;39.50;12.87;;;;;;;25.84;39.35;99908.05;1653888;85;21114;-58
2022/08/28 04:53:11;;;;;;;24.80;10.80;;;;;;;25.78;39.26;99907.88;1662974;84;21786;-56
2022/08/28 04:55:42;;;;;;;26.07;10.57;;;;;;;25.70;39.38;99902.63;1633705;86;21033;-57
2022/08/28 04:58:09;;;;;;;25.97;12.05;;;;;;;25.85;39.24;99913.63;1649827;85;21100;-64
2022/08/28 05:00:39;;;;;;;29.63;12.33;;;;;;;26.21;38.84;99910.32;1664301;84;21089;-56
2022/08/28 05:03:05;;;;;;;32.70;12.83;;;;;;;26.68;37.81;99906.52;1667305;83;21597;-56
2022/08/28 05:05:33;;;;;;;36.80;12.97;;;;;;;27.21;37.29;99902.47;1634427;85;21323;-57
2022/08/28 05:08:02;;;;;;;35.40;13.63;;;;;;;27.73;36.79;99892.14;1646840;85;21847;-56
2022/08/28 05:10:29;;;;;;;30.47;13.07;;;;;;;28.25;36.08;99900.99;1641366;85;21100;-58
2022/08/28 05:12:56;;;;;;;30.92;12.03;;;;;;;28.73;35.38;99890.28;1645363;85;21442;-56
2022/08/28 05:15:24;;;;;;;30.08;12.55;;;;;;;29.19;34.12;99885.45;1656988;84;20987;-64
2022/08/28 05:17:51;;;;;;;30.05;11.28;;;;;;;29.46;33.39;99882.98;1633899;84;21696;-58
2022/08/28 05:20:18;;;;;;;29.12;11.53;;;;;;;29.69;33.09;99891.66;1656033;85;21039;-56
2022/08/28 05:22:46;;;;;;;35.20;12.33;;;;;;;29.78;33.11;99886.51;1659718;84;21513;-57
2022/08/28 05:25:13;;;;;;;21.82;9.43;;;;;;;29.95;33.27;99882.18;1659997;85;21846;-62
2022/08/28 05:27:41;;;;;;;28.47;11.15;;;;;;;30.16;32.68;99879.05;1659489;85;21071;-56
2022/08/28 05:30:09;;;;;;;31.25;10.80;;;;;;;30.29;32.58;99879.93;1667439;84;21813;-57
2022/08/28 05:32:37;;;;;;;24.20;10.45;;;;;;;30.47;32.81;99887.36;1671472;84;20987;-57
2022/08/28 05:35:05;;;;;;;25.25;10.93;;;;;;;30.61;32.71;99885.76;1652896;86;21083;-57
2022/08/28 05:37:32;;;;;;;20.27;9.93;;;;;;;30.70;32.07;99887.85;1641890;86;21919;-57
2022/08/28 05:39:59;;;;;;;27.00;11.12;;;;;;;30.56;32.47;99884.61;1657034;85;21228;-57
2022/08/28 05:42:26;;;;;;;23.38;11.30;;;;;;;30.49;32.58;99888.59;1661129;84;21237;-56
2022/08/28 05:44:54;;;;;;;23.55;8.98;;;;;;;30.53;33.15;99888.73;1643560;86;21072;-56
2022/08/28 05:47:21;;;;;;;22.73;8.55;;;;;;;30.74;33.04;99885.55;1664565;85;21486;-65
2022/08/28 05:49:48;;;;;;;24.12;9.15;;;;;;;31.03;33.00;99883.93;1662613;85;21736;-58
2022/08/28 05:52:15;;;;;;;21.52;7.87;;;;;;;31.39;32.85;99881.18;1670897;84;21082;-57
2022/08/28 05:54:43;;;;;;;29.85;9.10;;;;;;;31.65;32.16;99879.01;1666331;84;21229;-65
2022/08/28 05:57:10;;;;;;;15.95;7.97;;;;;;;31.78;31.80;99883.07;1663101;85;21044;-63
2022/08/28 05:59:37;;;;;;;20.95;7.37;;;;;;;31.83;31.58;99878.27;1677599;84;21007;-57
2022/08/28 06:02:05;;;;;;;21.77;8.35;;;;;;;31.82;31.73;99871.84;1654691;86;21044;-57
2022/08/28 06:04:32;;;;;;;16.52;8.58;;;;;;;31.76;32.05;99883.41;1640594;85;21016;-65
2022/08/28 06:07:00;;;;;;;19.12;9.10;;;;;;;31.71;31.91;99884.42;1635044;86;21263;-57
2022/08/28 06:09:27;;;;;;;22.37;8.80;;;;;;;31.61;32.28;99887.53;1650380;84;21098;-65
2022/08/28 06:11:55;;;;;;;14.98;6.15;;;;;;;31.55;32.62;99884.81;1616563;87;21101;-57
2022/08/28 06:14:23;;;;;;;14.43;5.17;;;;;;;31.58;31.47;99881.46;1647625;85;21133;-57
2022/08/28 06:16:52;;;;;;;10.32;4.35;;;;;;;31.59;31.05;99877.64;1638633;84;21043;-66
2022/08/28 06:19:21;;;;;;;12.80;5.03;;;;;;;31.64;30.70;99876.66;1659650;84;21225;-65
2022/08/28 06:21:50;;;;;;;13.65;5.30;;;;;;;31.80;31.03;99872.75;1656436;84;21038;-58
2022/08/28 06:24:17;;;;;;;16.35;5.05;;;;;;;32.17;30.75;99873.61;1662799;84;21062;-57
2022/08/28 06:26:44;;;;;;;13.35;5.78;;;;;;;32.50;29.76;99876.75;1661568;84;21203;-65
2022/08/28 06:29:14;;;;;;;17.65;5.37;;;;;;;32.63;29.83;99868.87;1657107;85;21050;-58
2022/08/28 06:31:41;;;;;;;11.85;4.78;;;;;;;32.88;29.23;99872.28;1649645;85;21168;-57
2022/08/28 06:34:09;;;;;;;15.48;5.87;;;;;;;32.91;29.00;99874.30;1658861;85;21178;-57
2022/08/28 06:36:40;;;;;;;19.82;6.20;;;;;;;32.93;28.87;99872.05;1655810;85;21113;-57
2022/08/28 06:39:08;;;;;;;19.82;6.25;;;;;;;33.05;28.59;99869.33;1613617;86;21142;-61
2022/08/28 06:41:41;;;;;;;15.88;5.85;;;;;;;33.25;28.57;99870.83;1642679;86;20996;-57
2022/08/28 06:44:06;;;;;;;14.20;5.60;;;;;;;33.30;28.65;99869.22;1666762;85;21260;-57
2022/08/28 06:46:34;;;;;;;14.55;5.37;;;;;;;33.51;28.59;99866.34;1659694;85;21066;-58
2022/08/28 06:49:03;;;;;;;18.70;6.78;;;;;;;33.78;28.25;99859.30;1657714;84;21590;-63
2022/08/28 06:51:31;;;;;;;16.50;6.42;;;;;;;33.98;28.02;99867.75;1659898;85;21949;-57
2022/08/28 06:53:58;;;;;;;11.78;4.80;;;;;;;34.00;27.57;99855.22;1662300;85;21075;-58
2022/08/28 06:56:25;;;;;;;17.40;5.97;;;;;;;33.94;27.94;99856.01;1660705;85;21235;-57
2022/08/28 06:58:54;;;;;;;14.98;5.17;;;;;;;34.07;27.60;99854.82;1650155;85;21030;-61
2022/08/28 07:01:27;;;;;;;14.93;4.72;;;;;;;34.27;27.65;99850.81;1661592;84;20978;-57
2022/08/28 07:03:58;;;;;;;18.17;5.37;;;;;;;34.54;27.73;99849.89;1663916;84;21046;-57
2022/08/28 07:06:25;;;;;;;24.05;5.97;;;;;;;34.73;27.11;99861.31;1606491;87;21103;-59
2022/08/28 07:08:52;;;;;;;18.25;5.83;;;;;;;34.61;26.71;99852.75;1640695;84;21310;-58
2022/08/28 07:11:25;;;;;;;13.53;4.47;;;;;;;34.47;27.03;99860.53;1636336;86;21429;-58
2022/08/28 07:13:54;;;;;;;15.20;5.10;;;;;;;34.58;26.95;99856.16;1662663;84;21106;-57
2022/08/28 07:16:24;;;;;;;15.90;5.35;;;;;;;34.77;27.13;99855.40;1666649;83;21023;-58
2022/08/28 07:18:51;;;;;;;14.00;5.30;;;;;;;34.94;26.66;99850.72;1668938;84;21115;-58
2022/08/28 07:21:19;;;;;;;20.08;6.20;;;;;;;35.00;26.65;99852.78;1641806;85;22097;-57
2022/08/28 07:23:46;;;;;;;13.95;5.50;;;;;;;34.88;26.47;99850.78;1649699;85;21514;-58
2022/08/28 07:26:16;;;;;;;14.80;5.30;;;;;;;34.82;26.83;99838.89;1661316;84;21504;-57
2022/08/28 07:28:43;;;;;;;15.65;6.05;;;;;;;35.02;26.83;99839.69;1660256;84;21086;-59
2022/08/28 07:31:14;;;;;;;20.37;5.65;;;;;;;35.11;26.57;99838.10;1663034;84;21389;-57
2022/08/28 07:33:41;;;;;;;19.42;7.87;;;;;;;35.06;26.36;99833.77;1660233;84;21157;-58
2022/08/28 07:36:10;;;;;;;19.25;6.47;;;;;;;34.91;26.75;99834.60;1658107;84;21030;-59
2022/08/28 07:38:37;;;;;;;16.80;6.28;;;;;;;34.89;26.89;99828.74;1662453;84;21133;-58
2022/08/28 07:41:14;;;;;;;16.42;6.33;;;;;;;35.04;27.04;99827.13;1658640;83;21122;-59
2022/08/28 07:46:28;;;;;;;16.65;6.10;;;;;;;35.31;26.34;99827.45;1664262;83;22385;-63
2022/08/28 07:48:57;;;;;;;17.75;7.60;;;;;;;35.25;26.18;99828.11;1628871;87;21068;-58
2022/08/28 07:51:25;;;;;;;13.83;6.33;;;;;;;35.26;26.63;99832.38;1647939;85;21481;-57
2022/08/28 07:53:53;;;;;;;22.52;6.65;;;;;;;35.38;26.70;99837.62;1663387;84;21026;-58
2022/08/28 07:56:20;;;;;;;18.17;5.83;;;;;;;35.42;26.59;99824.13;1665314;84;21133;-57
2022/08/28 07:58:48;;;;;;;23.18;7.08;;;;;;;35.50;26.47;99824.52;1607068;87;21234;-59
2022/08/28 08:01:16;;;;;;;20.52;6.65;;;;;;;35.52;26.08;99823.56;1664898;84;21477;-58
2022/08/28 08:03:43;;;;;;;13.32;4.85;;;;;;;35.36;26.29;99835.08;1673594;84;21119;-58
2022/08/28 08:06:12;;;;;;;14.85;6.35;;;;;;;35.13;26.26;99822.86;1616198;87;21048;-57
2022/08/28 08:08:39;;;;;;;22.42;7.05;;;;;;;35.01;26.67;99821.09;1668788;83;21556;-64
2022/08/28 08:11:13;;;;;;;19.45;10.30;;;;;;;34.99;26.67;99829.56;1669932;84;21882;-57
2022/08/28 08:13:40;;;;;;;21.52;11.45;;;;;;;34.90;27.19;99825.48;1636709;85;21087;-57
2022/08/28 08:16:18;;;;;;;22.42;12.53;;;;;;;35.00;27.00;99818.93;1669983;84;21094;-60
2022/08/28 08:18:46;;;;;;;18.92;8.55;;;;;;;35.04;26.93;99819.00;1644315;85;21204;-58
2022/08/28 08:21:16;;;;;;;16.67;7.35;;;;;;;34.95;26.90;99818.42;1673730;84;21543;-57
2022/08/28 08:23:43;;;;;;;18.50;6.80;;;;;;;34.74;27.34;99822.29;1675026;84;21158;-55
2022/08/28 08:26:13;;;;;;;17.15;6.67;;;;;;;34.73;27.25;99819.92;1653866;85;21075;-56
2022/08/28 08:28:41;;;;;;;17.25;5.83;;;;;;;34.88;27.18;99820.41;1622744;87;20980;-63
2022/08/28 08:31:17;;;;;;;21.12;6.25;;;;;;;34.91;27.02;99808.88;1639047;85;21471;-59
2022/08/28 08:33:52;;;;;;;17.10;5.25;;;;;;;34.89;27.04;99809.01;1638456;85;21610;-56
2022/08/28 08:36:21;;;;;;;13.90;5.72;;;;;;;34.85;27.19;99806.23;1659240;84;21206;-62
2022/08/28 08:38:48;;;;;;;16.60;5.92;;;;;;;34.89;27.21;99803.02;1678928;84;21008;-57
2022/08/28 08:41:47;;;;;;;11.45;5.05;;;;;;;35.02;27.62;99794.99;1674382;84;21011;-56
2022/08/28 08:44:37;;;;;;;16.02;6.65;;;;;;;35.36;27.29;99803.34;1669703;84;21051;-62
2022/08/28 08:47:28;;;;;;;11.22;5.00;;;;;;;35.66;26.80;99790.50;1676210;85;21549;-58
2022/08/28 08:50:13;;;;;;;10.82;5.12;;;;;;;35.65;26.66;99800.56;1665461;84;21176;-57
2022/08/28 08:52:51;;;;;;;17.30;5.10;;;;;;;35.51;26.92;99791.62;1674312;84;21011;-57
2022/08/28 08:55:30;;;;;;;17.57;4.95;;;;;;;35.52;27.36;99793.17;1650452;82;21124;-56
2022/08/28 08:58:22;;;;;;;17.02;5.00;;;;;;;35.73;26.87;99788.67;1666926;83;21511;-56
2022/08/28 09:01:10;;;;;;;14.40;4.87;;;;;;;35.86;26.63;99798.73;1663130;84;21167;-55
2022/08/28 09:04:12;;;;;;;15.53;5.37;;;;;;;35.85;26.50;99793.69;1627908;85;21548;-54
2022/08/28 09:06:48;;;;;;;11.10;4.60;;;;;;;35.68;26.95;99786.83;1647620;86;20968;-56
2022/08/28 09:09:34;;;;;;;17.42;5.08;;;;;;;35.78;26.82;99791.64;1648203;84;21194;-55
2022/08/28 09:12:05;;;;;;;18.77;5.37;;;;;;;35.90;26.91;99799.57;1659434;84;21078;-57
2022/08/28 09:15:04;;;;;;;14.40;4.20;;;;;;;35.96;26.45;99787.27;1661440;84;21082;-55
2022/08/28 09:17:46;;;;;;;15.80;5.37;;;;;;;36.12;26.62;99799.34;1667725;84;21785;-56
2022/08/28 09:20:19;;;;;;;11.25;4.67;;;;;;;36.21;26.12;99793.64;1664676;84;21019;-57
2022/08/28 09:22:47;;;;;;;15.80;5.22;;;;;;;36.10;26.20;99792.12;1662705;84;21030;-63
2022/08/28 09:25:52;;;;;;;12.68;5.37;;;;;;;36.14;26.90;99804.39;1666287;84;21139;-56
2022/08/28 09:28:29;;;;;;;15.28;4.75;;;;;;;36.28;27.02;99801.88;1665465;84;21062;-58
2022/08/28 09:31:12;;;;;;;13.32;4.12;;;;;;;36.58;26.94;99795.11;1662551;83;21161;-57
2022/08/28 09:33:48;;;;;;;10.48;4.53;;;;;;;36.85;26.49;99797.73;1664490;83;20963;-56
2022/08/28 09:36:37;;;;;;;14.63;5.22;;;;;;;37.22;26.22;99791.75;1669752;82;21868;-56
2022/08/28 09:39:28;;;;;;;15.60;5.17;;;;;;;37.38;25.50;99792.85;1656121;85;21070;-56
2022/08/28 09:45:07;;;;;;;17.23;4.72;;;;;;;37.19;25.74;99797.14;1663131;84;21178;-58
2022/08/28 09:47:56;;;;;;;14.15;4.90;;;;;;;37.43;25.32;99793.11;1667393;85;21651;-56
2022/08/28 09:50:29;;;;;;;17.30;5.55;;;;;;;37.77;25.42;99788.31;1665547;84;21774;-57
2022/08/28 09:53:00;;;;;;;22.77;5.30;;;;;;;38.06;24.49;99800.78;1663592;84;21575;-64
2022/08/28 09:55:57;;;;;;;16.37;4.90;;;;;;;37.77;24.53;99792.39;1663357;84;21114;-59
2022/08/28 09:58:35;;;;;;;27.30;5.60;;;;;;;37.64;25.13;99802.80;1668265;85;21792;-57
2022/08/28 10:01:19;;;;;;;15.72;5.60;;;;;;;37.70;24.73;99795.09;1660095;84;20998;-56
2022/08/28 10:03:58;;;;;;;17.80;6.03;;;;;;;37.65;24.86;99791.34;1657527;85;21023;-56
2022/08/28 10:06:28;;;;;;;17.82;5.42;;;;;;;37.82;25.33;99800.22;1668266;84;21094;-56
2022/08/28 10:09:22;;;;;;;23.98;6.50;;;;;;;38.01;24.45;99794.34;1633594;84;21039;-56
2022/08/28 10:12:33;;;;;;;22.70;5.85;;;;;;;37.77;24.69;99801.91;1646898;85;21730;-56
2022/08/28 10:15:23;;;;;;;18.05;5.78;;;;;;;37.78;24.83;99802.72;1668883;84;21054;-64
2022/08/28 10:18:18;;;;;;;21.62;5.83;;;;;;;38.18;24.87;99799.09;1685709;84;21043;-56
2022/08/28 10:21:15;;;;;;;19.98;4.72;;;;;;;38.74;24.30;99796.44;1657776;83;21776;-57
2022/08/28 10:24:20;;;;;;;18.98;4.78;;;;;;;39.07;24.05;99793.23;1666569;84;21090;-57
2022/08/28 10:27:00;;;;;;;16.48;4.92;;;;;;;39.17;23.74;99790.53;1658164;85;21260;-58
2022/08/28 10:29:51;;;;;;;20.02;5.25;;;;;;;39.04;23.77;99799.45;1638036;85;21065;-63
2022/08/28 10:32:37;;;;;;;;;;;;;;;38.78;23.84;99798.58;1667222;84;21504;-60
2022/08/28 10:35:42;;;;;;;21.82;5.25;;;;;;;38.66;23.91;99791.55;1657427;85;20144;-57
2022/08/28 10:38:15;;;;;;;18.80;5.62;;;;;;;38.74;24.41;99787.48;1638937;84;36072;-56
2022/08/28 10:41:09;;;;;;;20.70;4.58;;;;;;;39.06;24.00;99784.28;1667038;83;21154;-56
2022/08/28 10:43:45;;;;;;;14.03;4.50;;;;;;;39.34;24.20;99798.54;1658994;84;20987;-57
2022/08/28 10:46:41;;;;;;;16.12;5.08;;;;;;;39.27;23.34;99785.48;1676209;84;21089;-57
2022/08/28 10:49:34;;;;;;;19.75;5.17;;;;;;;38.84;24.01;99787.55;1659660;84;21164;-56
2022/08/28 10:52:09;;;;;;;14.13;4.60;;;;;;;38.32;24.45;99786.91;1678384;84;21519;-64
2022/08/28 10:55:04;;;;;;;19.20;4.72;;;;;;;38.19;25.22;99781.03;1659229;84;21158;-56
2022/08/28 10:57:43;;;;;;;19.37;6.08;;;;;;;38.45;24.67;99777.84;1660154;85;21469;-63
2022/08/28 11:00:15;;;;;;;17.75;5.30;;;;;;;38.82;24.95;99780.33;1661874;84;21152;-56
2022/08/28 11:02:51;;;;;;;22.10;5.33;;;;;;;38.96;24.52;99778.81;1665956;84;21122;-62
2022/08/28 11:05:37;;;;;;;14.40;4.40;;;;;;;38.79;24.33;99775.64;1660944;84;21422;-57
2022/08/28 11:08:08;;;;;;;19.00;5.08;;;;;;;38.89;25.02;99780.94;1639803;85;21290;-56
2022/08/28 11:10:47;;;;;;;18.95;4.83;;;;;;;39.10;24.86;99775.52;1668496;84;20964;-57
2022/08/28 11:13:55;;;;;;;19.20;5.70;;;;;;;39.35;25.21;99778.28;1665534;84;21526;-56
2022/08/28 11:16:31;;;;;;;19.42;5.80;;;;;;;39.55;24.96;99771.86;1636813;85;21664;-64
2022/08/28 11:19:20;;;;;;;17.60;5.45;;;;;;;39.78;25.10;99771.46;1656875;84;21597;-56
2022/08/28 11:21:51;;;;;;;17.35;6.05;;;;;;;39.84;25.16;99769.88;1656463;84;22195;-56
2022/08/28 11:24:33;;;;;;;20.35;5.92;;;;;;;40.05;24.82;99767.69;1668645;84;21169;-56
2022/08/28 11:27:15;;;;;;;19.55;5.25;;;;;;;40.29;24.51;99768.02;1660039;83;21091;-56
2022/08/28 11:30:13;;;;;;;16.32;5.87;;;;;;;40.36;24.30;99772.86;1666502;84;21546;-61
2022/08/28 11:32:55;;;;;;;21.15;5.45;;;;;;;40.07;24.24;99774.10;1666945;84;21211;-63
2022/08/28 11:35:47;;;;;;;20.72;5.60;;;;;;;39.72;24.26;99772.25;1665658;84;22246;-56
2022/08/28 11:38:45;;;;;;;20.48;6.10;;;;;;;39.63;24.81;99771.27;1638473;86;21110;-63
2022/08/28 11:41:25;;;;;;;18.55;5.22;;;;;;;39.49;24.59;99768.55;1637618;85;21044;-57
2022/08/28 11:44:12;;;;;;;16.97;5.73;;;;;;;39.41;25.31;99769.91;1663754;85;21512;-63
2022/08/28 11:46:44;;;;;;;20.52;6.10;;;;;;;39.67;25.20;99765.22;1668207;84;21023;-59
2022/08/28 11:49:32;;;;;;;;;;;;;;;40.01;24.78;99758.73;1609324;87;21291;-59
2022/08/28 11:52:28;;;;;;;13.25;5.95;;;;;;;40.20;24.84;99764.35;1639603;86;20533;-57
2022/08/28 11:55:23;;;;;;;17.00;5.87;;;;;;;40.05;24.41;99768.27;1647469;85;21078;-59